createdAt,value
2022-09-28T00:00:32.110Z,95.52
2022-09-28T00:01:32.178Z,95.27
2022-09-28T00:02:32.216Z,95.17
2022-09-28T00:03:32.105Z,95.47
2022-09-28T00:04:32.093Z,95.27
2022-09-28T00:05:32.054Z,95.27
2022-09-28T00:06:32.048Z,94.96
2022-09-28T00:07:32.043Z,94.85
2022-09-28T00:08:32.022Z,95.37
2022-09-28T00:09:32.027Z,95.10
2022-09-28T00:10:32.000Z,95.37
2022-09-28T00:11:31.990Z,95.93
2022-09-28T00:12:31.981Z,95.57
2022-09-28T00:13:31.976Z,94.85
2022-09-28T00:14:31.968Z,94.96
2022-09-28T00:15:31.956Z,95.83
2022-09-28T00:16:31.987Z,95.68
2022-09-28T00:17:31.917Z,95.98
2022-09-28T00:18:31.908Z,95.57
2022-09-28T00:19:31.937Z,95.78
2022-09-28T00:20:31.913Z,95.27
2022-09-28T00:21:31.895Z,95.89
2022-09-28T00:22:31.867Z,95.89
2022-09-28T00:23:31.856Z,96.40
2022-09-28T00:24:31.919Z,95.98
2022-09-28T00:25:31.831Z,95.98
2022-09-28T00:26:31.821Z,95.68
2022-09-28T00:27:31.812Z,95.98
2022-09-28T00:28:31.819Z,95.94
2022-09-28T00:29:31.825Z,96.45
2022-09-28T00:30:31.794Z,96.35
2022-09-28T00:31:31.882Z,96.04
2022-09-28T00:32:31.759Z,96.15
2022-09-28T00:33:31.742Z,96.35
2022-09-28T00:34:31.739Z,96.19
2022-09-28T00:35:31.744Z,96.35
2022-09-28T00:36:31.738Z,96.25
2022-09-28T00:37:31.699Z,96.25
2022-09-28T00:38:31.707Z,96.15
2022-09-28T00:39:31.755Z,96.30
2022-09-28T00:40:31.716Z,96.35
2022-09-28T00:41:31.672Z,96.30
2022-09-28T00:42:31.653Z,96.50
2022-09-28T00:43:31.633Z,96.19
2022-09-28T00:44:31.628Z,96.30
2022-09-28T00:45:31.718Z,96.25
2022-09-28T00:46:31.601Z,96.15
2022-09-28T00:47:31.592Z,96.25
2022-09-28T00:48:31.578Z,96.25
2022-09-28T00:49:31.568Z,96.40
2022-09-28T00:50:31.578Z,96.09
2022-09-28T00:51:31.557Z,96.30
2022-09-28T00:52:31.558Z,96.40
2022-09-28T00:53:31.526Z,96.56
2022-09-28T00:54:31.517Z,96.56
2022-09-28T00:55:31.503Z,96.77
2022-09-28T00:56:31.504Z,96.50
2022-09-28T00:57:31.488Z,96.45
2022-09-28T00:58:31.468Z,96.66
2022-09-28T00:59:31.455Z,96.45
2022-09-28T01:00:31.512Z,96.66
2022-09-28T01:01:31.447Z,96.45
2022-09-28T01:02:31.468Z,96.87
2022-09-28T01:03:31.434Z,96.66
2022-09-28T01:04:31.404Z,96.45
2022-09-28T01:05:31.388Z,96.77
2022-09-28T01:06:31.408Z,96.66
2022-09-28T01:07:31.384Z,96.87
2022-09-28T01:08:31.380Z,96.77
2022-09-28T01:09:31.357Z,96.45
2022-09-28T01:10:31.332Z,96.66
2022-09-28T01:11:31.324Z,96.70
2022-09-28T01:12:31.327Z,96.56
2022-09-28T01:13:31.298Z,96.45
2022-09-28T01:14:31.291Z,96.77
2022-09-28T01:15:31.279Z,96.45
2022-09-28T01:16:31.353Z,96.56
2022-09-28T01:17:31.269Z,96.56
2022-09-28T01:18:31.260Z,96.77
2022-09-28T01:19:31.232Z,96.60
2022-09-28T01:20:31.225Z,96.60
2022-09-28T01:21:31.212Z,96.45
2022-09-28T01:22:31.209Z,96.77
2022-09-28T01:23:31.211Z,96.45
2022-09-28T01:24:31.203Z,96.45
2022-09-28T01:25:31.166Z,96.81
2022-09-28T01:26:31.157Z,96.45
2022-09-28T01:27:31.145Z,97.02
2022-09-28T01:28:31.148Z,96.70
2022-09-28T01:29:31.136Z,96.70
2022-09-28T01:30:31.118Z,97.02
2022-09-28T01:31:31.176Z,97.53
2022-09-28T01:32:31.106Z,97.42
2022-09-28T01:33:31.077Z,97.63
2022-09-28T01:34:31.083Z,97.63
2022-09-28T01:35:31.057Z,97.32
2022-09-28T01:36:31.046Z,97.73
2022-09-28T01:37:31.045Z,97.99
2022-09-28T01:38:31.023Z,97.53
2022-09-28T01:39:31.010Z,97.42
2022-09-28T01:40:31.057Z,97.32
2022-09-28T01:41:30.992Z,97.53
2022-09-28T01:42:31.011Z,97.94
2022-09-28T01:43:30.965Z,98.14
2022-09-28T01:44:30.961Z,98.14
2022-09-28T01:45:31.028Z,98.25
2022-09-28T01:46:30.949Z,97.83
2022-09-28T01:47:30.923Z,98.04
2022-09-28T01:48:30.944Z,98.04
2022-09-28T01:49:30.905Z,97.94
2022-09-28T01:50:30.895Z,97.83
2022-09-28T01:51:30.879Z,97.63
2022-09-28T01:52:30.886Z,97.63
2022-09-28T01:53:30.860Z,97.94
2022-09-28T01:54:30.868Z,97.94
2022-09-28T01:55:30.834Z,97.32
2022-09-28T01:56:30.853Z,97.83
2022-09-28T01:57:30.815Z,97.83
2022-09-28T01:58:30.825Z,97.22
2022-09-28T01:59:30.803Z,97.53
2022-09-28T02:00:30.832Z,98.04
2022-09-28T02:01:30.768Z,97.63
2022-09-28T02:02:30.843Z,97.63
2022-09-28T02:03:30.773Z,97.53
2022-09-28T02:04:30.909Z,97.32
2022-09-28T02:05:30.729Z,97.53
2022-09-28T02:06:30.716Z,97.22
2022-09-28T02:07:30.702Z,97.22
2022-09-28T02:08:30.716Z,97.38
2022-09-28T02:09:33.777Z,97.73
2022-09-28T02:10:30.686Z,97.42
2022-09-28T02:11:30.663Z,97.32
2022-09-28T02:12:30.670Z,97.32
2022-09-28T02:13:30.637Z,97.32
2022-09-28T02:14:30.641Z,97.42
2022-09-28T02:15:30.637Z,97.53
2022-09-28T02:16:30.716Z,97.83
2022-09-28T02:17:30.622Z,97.94
2022-09-28T02:18:30.592Z,97.83
2022-09-28T02:19:30.572Z,97.83
2022-09-28T02:20:30.561Z,97.22
2022-09-28T02:21:30.561Z,97.22
2022-09-28T02:22:30.537Z,97.42
2022-09-28T02:23:30.524Z,97.73
2022-09-28T02:24:30.521Z,97.22
2022-09-28T02:25:30.499Z,97.42
2022-09-28T02:26:30.507Z,97.12
2022-09-28T02:27:30.479Z,97.12
2022-09-28T02:28:30.501Z,97.12
2022-09-28T02:29:30.460Z,98.04
2022-09-28T02:30:30.455Z,97.22
2022-09-28T02:31:30.514Z,97.32
2022-09-28T02:32:30.423Z,97.63
2022-09-28T02:33:30.415Z,97.53
2022-09-28T02:34:30.402Z,97.22
2022-09-28T02:35:30.408Z,97.53
2022-09-28T02:36:30.382Z,97.53
2022-09-28T02:37:30.403Z,97.69
2022-09-28T02:38:30.358Z,97.53
2022-09-28T02:39:30.350Z,97.12
2022-09-28T02:40:30.377Z,97.42
2022-09-28T02:41:30.336Z,97.83
2022-09-28T02:42:30.320Z,97.83
2022-09-28T02:43:30.318Z,97.02
2022-09-28T02:44:30.312Z,97.27
2022-09-28T02:45:30.349Z,97.42
2022-09-28T02:46:30.268Z,97.32
2022-09-28T02:47:30.270Z,97.83
2022-09-28T02:48:43.067Z,97.94
2022-09-28T02:49:31.464Z,97.83
2022-09-28T02:50:30.223Z,97.83
2022-09-28T02:51:30.215Z,97.88
2022-09-28T02:52:30.204Z,97.78
2022-09-28T02:53:30.219Z,98.29
2022-09-28T02:54:30.179Z,98.04
2022-09-28T02:55:30.176Z,98.39
2022-09-28T02:56:30.162Z,98.39
2022-09-28T02:57:30.151Z,97.99
2022-09-28T02:58:30.160Z,97.57
2022-09-28T02:59:30.141Z,97.88
2022-09-28T03:00:30.134Z,98.08
2022-09-28T03:01:30.104Z,97.63
2022-09-28T03:02:30.163Z,97.78
2022-09-28T03:03:30.088Z,97.78
2022-09-28T03:04:30.118Z,97.78
2022-09-28T03:05:30.063Z,97.47
2022-09-28T03:06:30.053Z,97.78
2022-09-28T03:07:30.037Z,97.99
2022-09-28T03:08:30.033Z,98.08
2022-09-28T03:09:30.025Z,98.29
2022-09-28T03:10:30.032Z,97.99
2022-09-28T03:11:29.995Z,98.19
2022-09-28T03:12:30.005Z,98.29
2022-09-28T03:13:29.993Z,97.88
2022-09-28T03:14:29.958Z,98.29
2022-09-28T03:15:29.967Z,97.99
2022-09-28T03:16:30.028Z,97.88
2022-09-28T03:17:29.941Z,97.99
2022-09-28T03:18:29.915Z,98.29
2022-09-28T03:19:29.926Z,98.19
2022-09-28T03:20:29.893Z,97.99
2022-09-28T03:21:29.884Z,98.08
2022-09-28T03:22:29.876Z,97.99
2022-09-28T03:23:29.862Z,98.39
2022-09-28T03:24:29.847Z,98.08
2022-09-28T03:25:29.850Z,98.25
2022-09-28T03:26:29.828Z,97.88
2022-09-28T03:27:29.816Z,97.88
2022-09-28T03:28:29.816Z,97.88
2022-09-28T03:29:29.817Z,97.67
2022-09-28T03:30:29.779Z,97.99
2022-09-28T03:31:29.866Z,97.42
2022-09-28T03:32:29.815Z,96.95
2022-09-28T03:33:29.753Z,97.27
2022-09-28T03:34:29.749Z,97.94
2022-09-28T03:35:29.755Z,97.73
2022-09-28T03:36:29.726Z,98.04
2022-09-28T03:37:29.703Z,97.99
2022-09-28T03:38:29.691Z,97.83
2022-09-28T03:39:29.690Z,97.83
2022-09-28T03:40:29.810Z,97.83
2022-09-28T03:41:29.672Z,98.14
2022-09-28T03:42:29.648Z,97.63
2022-09-28T03:43:29.641Z,97.53
2022-09-28T03:44:29.662Z,97.32
2022-09-28T03:45:29.703Z,97.42
2022-09-28T03:46:29.605Z,97.53
2022-09-28T03:47:29.598Z,97.53
2022-09-28T03:48:32.329Z,97.57
2022-09-28T03:49:29.594Z,97.42
2022-09-28T03:50:29.579Z,97.53
2022-09-28T03:51:29.584Z,97.42
2022-09-28T03:52:29.552Z,97.02
2022-09-28T03:53:29.568Z,96.81
2022-09-28T03:54:29.541Z,96.91
2022-09-28T03:55:29.518Z,96.81
2022-09-28T03:56:29.505Z,96.50
2022-09-28T03:57:29.485Z,96.50
2022-09-28T03:58:29.476Z,96.55
2022-09-28T03:59:29.474Z,96.70
2022-09-28T04:00:29.449Z,96.85
2022-09-28T04:01:29.550Z,96.81
2022-09-28T04:02:29.535Z,96.85
2022-09-28T04:03:29.415Z,97.12
2022-09-28T04:04:29.428Z,97.37
2022-09-28T04:05:29.394Z,97.47
2022-09-28T04:06:29.387Z,97.47
2022-09-28T04:07:31.253Z,96.85
2022-09-28T04:08:29.357Z,97.67
2022-09-28T04:09:29.356Z,97.37
2022-09-28T04:10:29.337Z,97.57
2022-09-28T04:11:38.504Z,97.47
2022-09-28T04:12:30.327Z,97.27
2022-09-28T04:13:29.303Z,96.75
2022-09-28T04:14:29.291Z,97.47
2022-09-28T04:15:29.284Z,97.27
2022-09-28T04:16:29.359Z,97.37
2022-09-28T04:17:29.278Z,97.37
2022-09-28T04:18:29.244Z,97.06
2022-09-28T04:19:29.262Z,97.47
2022-09-28T04:20:29.246Z,97.47
2022-09-28T04:21:29.217Z,97.16
2022-09-28T04:22:29.213Z,97.37
2022-09-28T04:23:29.219Z,97.37
2022-09-28T04:24:29.178Z,97.37
2022-09-28T04:25:29.182Z,97.27
2022-09-28T04:26:29.156Z,97.57
2022-09-28T04:27:29.149Z,97.37
2022-09-28T04:28:29.142Z,97.16
2022-09-28T04:29:29.150Z,97.27
2022-09-28T04:30:29.125Z,97.57
2022-09-28T04:31:29.187Z,97.27
2022-09-28T04:32:29.088Z,97.37
2022-09-28T04:33:29.080Z,97.31
2022-09-28T04:34:34.542Z,97.99
2022-09-28T04:35:30.094Z,97.99
2022-09-28T04:36:29.065Z,97.78
2022-09-28T04:37:29.046Z,97.67
2022-09-28T04:38:48.726Z,97.06
2022-09-28T04:39:30.015Z,97.27
2022-09-28T04:40:29.040Z,97.41
2022-09-28T04:41:29.011Z,97.82
2022-09-28T04:42:28.981Z,97.47
2022-09-28T04:43:28.970Z,97.88
2022-09-28T04:44:28.963Z,97.88
2022-09-28T04:45:29.052Z,98.33
2022-09-28T04:46:28.955Z,98.08
2022-09-28T04:47:28.926Z,98.08
2022-09-28T04:48:28.938Z,97.78
2022-09-28T04:49:28.904Z,97.78
2022-09-28T04:50:28.889Z,97.57
2022-09-28T04:51:28.881Z,97.47
2022-09-28T04:52:28.899Z,97.47
2022-09-28T04:53:28.873Z,98.19
2022-09-28T04:54:28.844Z,97.78
2022-09-28T04:55:28.840Z,98.08
2022-09-28T04:56:28.852Z,97.67
2022-09-28T04:57:28.819Z,97.88
2022-09-28T04:58:28.797Z,97.88
2022-09-28T04:59:28.802Z,98.19
2022-09-28T05:00:28.789Z,97.78
2022-09-28T05:01:28.806Z,98.08
2022-09-28T05:02:28.832Z,97.57
2022-09-28T05:03:28.750Z,97.99
2022-09-28T05:04:28.733Z,97.82
2022-09-28T05:05:28.738Z,97.67
2022-09-28T05:06:28.714Z,97.78
2022-09-28T05:07:28.703Z,97.78
2022-09-28T05:08:28.735Z,97.78
2022-09-28T05:09:28.679Z,97.78
2022-09-28T05:10:28.665Z,97.99
2022-09-28T05:11:28.677Z,97.62
2022-09-28T05:12:28.641Z,98.13
2022-09-28T05:13:28.635Z,97.99
2022-09-28T05:14:28.633Z,98.50
2022-09-28T05:15:28.621Z,98.70
2022-09-28T05:16:28.711Z,98.70
2022-09-28T05:17:28.590Z,98.60
2022-09-28T05:18:28.586Z,98.80
2022-09-28T05:19:28.566Z,98.39
2022-09-28T05:20:28.565Z,98.39
2022-09-28T05:21:28.544Z,98.80
2022-09-28T05:22:28.529Z,98.76
2022-09-28T05:23:28.527Z,98.70
2022-09-28T05:24:28.549Z,98.76
2022-09-28T05:25:28.499Z,98.25
2022-09-28T05:26:28.510Z,98.55
2022-09-28T05:27:28.479Z,98.80
2022-09-28T05:28:28.463Z,98.70
2022-09-28T05:29:32.030Z,98.55
2022-09-28T05:30:28.440Z,98.76
2022-09-28T05:31:28.524Z,98.55
2022-09-28T05:32:28.418Z,98.96
2022-09-28T05:33:28.410Z,98.55
2022-09-28T05:34:28.397Z,98.55
2022-09-28T05:35:28.397Z,98.55
2022-09-28T05:36:28.374Z,98.55
2022-09-28T05:37:28.380Z,98.55
2022-09-28T05:38:28.361Z,98.86
2022-09-28T05:39:28.342Z,98.76
2022-09-28T05:40:28.424Z,98.76
2022-09-28T05:41:28.321Z,98.86
2022-09-28T05:42:28.314Z,98.76
2022-09-28T05:43:28.298Z,98.55
2022-09-28T05:44:28.289Z,98.76
2022-09-28T05:45:28.378Z,98.55
2022-09-28T05:46:28.335Z,98.55
2022-09-28T05:47:28.253Z,98.96
2022-09-28T05:48:28.262Z,98.76
2022-09-28T05:49:28.234Z,97.94
2022-09-28T05:50:28.216Z,97.94
2022-09-28T05:51:28.221Z,97.83
2022-09-28T05:52:28.231Z,97.63
2022-09-28T05:53:28.194Z,97.73
2022-09-28T05:54:28.179Z,98.04
2022-09-28T05:55:28.208Z,97.37
2022-09-28T05:56:28.186Z,97.78
2022-09-28T05:57:28.156Z,98.08
2022-09-28T05:58:28.130Z,97.99
2022-09-28T05:59:28.126Z,97.99
2022-09-28T06:00:28.105Z,97.78
2022-09-28T06:01:28.195Z,98.29
2022-09-28T06:02:28.234Z,97.99
2022-09-28T06:03:28.075Z,97.88
2022-09-28T06:04:28.063Z,97.99
2022-09-28T06:05:28.068Z,97.99
2022-09-28T06:06:28.044Z,97.42
2022-09-28T06:07:28.034Z,98.04
2022-09-28T06:08:28.042Z,97.42
2022-09-28T06:09:28.008Z,97.63
2022-09-28T06:10:27.994Z,97.83
2022-09-28T06:11:27.990Z,97.83
2022-09-28T06:12:28.075Z,97.94
2022-09-28T06:13:27.982Z,97.53
2022-09-28T06:14:27.959Z,97.78
2022-09-28T06:15:27.950Z,98.29
2022-09-28T06:16:27.974Z,98.29
2022-09-28T06:17:27.928Z,98.08
2022-09-28T06:18:27.926Z,98.29
2022-09-28T06:19:27.904Z,98.25
2022-09-28T06:20:27.953Z,98.25
2022-09-28T06:21:27.887Z,97.94
2022-09-28T06:22:27.864Z,97.83
2022-09-28T06:23:27.869Z,97.42
2022-09-28T06:24:27.856Z,97.83
2022-09-28T06:25:27.830Z,97.63
2022-09-28T06:26:27.820Z,97.42
2022-09-28T06:27:27.810Z,97.83
2022-09-28T06:28:27.842Z,97.42
2022-09-28T06:29:27.814Z,97.47
2022-09-28T06:30:27.837Z,97.78
2022-09-28T06:31:27.778Z,97.67
2022-09-28T06:32:27.751Z,97.37
2022-09-28T06:33:27.757Z,97.52
2022-09-28T06:34:27.754Z,97.62
2022-09-28T06:35:27.722Z,97.92
2022-09-28T06:36:27.706Z,97.52
2022-09-28T06:37:27.699Z,97.31
2022-09-28T06:38:27.691Z,97.37
2022-09-28T06:39:27.678Z,97.47
2022-09-28T06:40:27.762Z,97.47
2022-09-28T06:41:27.679Z,97.47
2022-09-28T06:42:27.648Z,97.37
2022-09-28T06:43:32.109Z,97.47
2022-09-28T06:44:28.643Z,97.57
2022-09-28T06:45:27.630Z,97.47
2022-09-28T06:46:27.692Z,97.22
2022-09-28T06:47:27.583Z,97.42
2022-09-28T06:48:27.592Z,97.53
2022-09-28T06:49:27.561Z,97.94
2022-09-28T06:50:27.607Z,97.94
2022-09-28T06:51:27.561Z,97.63
2022-09-28T06:52:27.543Z,97.37
2022-09-28T06:53:27.516Z,96.85
2022-09-28T06:54:27.519Z,97.57
2022-09-28T06:55:27.495Z,97.47
2022-09-28T06:56:32.581Z,97.47
2022-09-28T06:57:28.471Z,97.37
2022-09-28T06:58:27.465Z,97.27
2022-09-28T06:59:27.456Z,97.22
2022-09-28T07:00:27.569Z,97.57
2022-09-28T07:01:27.522Z,97.57
2022-09-28T07:02:27.459Z,96.85
2022-09-28T07:03:27.411Z,96.75
2022-09-28T07:04:27.397Z,97.06
2022-09-28T07:05:27.392Z,97.47
2022-09-28T07:06:27.401Z,97.37
2022-09-28T07:07:27.363Z,97.37
2022-09-28T07:08:27.353Z,97.53
2022-09-28T07:09:32.649Z,97.12
2022-09-28T07:10:28.333Z,97.63
2022-09-28T07:11:27.342Z,97.53
2022-09-28T07:12:27.308Z,97.94
2022-09-28T07:13:48.468Z,97.22
2022-09-28T07:14:46.060Z,97.12
2022-09-28T07:15:28.272Z,97.32
2022-09-28T07:16:36.782Z,97.02
2022-09-28T07:17:28.339Z,96.81
2022-09-28T07:18:27.270Z,96.81
2022-09-28T07:19:27.241Z,96.91
2022-09-28T07:20:27.218Z,96.70
2022-09-28T07:21:30.509Z,96.81
2022-09-28T07:22:41.157Z,97.02
2022-09-28T07:23:28.245Z,97.48
2022-09-28T07:24:27.180Z,96.97
2022-09-28T07:25:27.167Z,96.40
2022-09-28T07:26:27.162Z,96.19
2022-09-28T07:27:29.042Z,96.40
2022-09-28T07:28:27.153Z,96.15
2022-09-28T07:29:27.122Z,96.25
2022-09-28T07:30:27.202Z,96.15
2022-09-28T07:31:27.112Z,96.35
2022-09-28T07:32:27.149Z,96.56
2022-09-28T07:33:27.103Z,96.56
2022-09-28T07:34:27.063Z,96.04
2022-09-28T07:35:27.051Z,95.79
2022-09-28T07:36:27.089Z,95.32
2022-09-28T07:37:27.038Z,96.04
2022-09-28T07:38:27.020Z,95.23
2022-09-28T07:39:27.044Z,94.92
2022-09-28T07:40:27.072Z,95.79
2022-09-28T07:41:26.988Z,95.90
2022-09-28T07:42:26.981Z,94.98
2022-09-28T07:43:26.979Z,95.79
2022-09-28T07:44:26.956Z,95.07
2022-09-28T07:45:26.942Z,94.56
2022-09-28T07:46:27.029Z,94.67
2022-09-28T07:47:29.763Z,94.36
2022-09-28T07:48:27.953Z,94.26
2022-09-28T07:49:26.902Z,94.46
2022-09-28T07:50:26.886Z,94.46
2022-09-28T07:51:26.875Z,94.36
2022-09-28T07:52:26.866Z,93.95
2022-09-28T07:53:26.877Z,94.11
2022-09-28T07:54:26.849Z,94.21
2022-09-28T07:55:26.829Z,93.80
2022-09-28T07:56:26.821Z,93.70
2022-09-28T07:57:26.814Z,92.78
2022-09-28T07:58:26.800Z,93.49
2022-09-28T07:59:26.854Z,92.88
2022-09-28T08:00:29.795Z,93.13
2022-09-28T08:01:27.993Z,93.19
2022-09-28T08:02:26.817Z,93.39
2022-09-28T08:03:26.752Z,93.70
2022-09-28T08:04:26.767Z,93.86
2022-09-28T08:05:26.731Z,92.94
2022-09-28T08:06:26.714Z,92.63
2022-09-28T08:07:33.773Z,92.53
2022-09-28T08:08:26.713Z,92.63
2022-09-28T08:09:26.674Z,92.74
2022-09-28T08:10:26.682Z,92.53
2022-09-28T08:11:26.669Z,92.74
2022-09-28T08:12:26.664Z,92.12
2022-09-28T08:13:27.228Z,92.02
2022-09-28T08:14:26.628Z,91.97
2022-09-28T08:15:26.608Z,91.87
2022-09-28T08:16:26.691Z,92.49
2022-09-28T08:17:26.620Z,92.08
2022-09-28T08:18:26.600Z,91.26
2022-09-28T08:19:26.561Z,91.87
2022-09-28T08:20:26.573Z,90.70
2022-09-28T08:21:26.571Z,90.91
2022-09-28T08:22:26.550Z,90.56
2022-09-28T08:23:26.526Z,90.09
2022-09-28T08:24:26.545Z,90.30
2022-09-28T08:25:26.498Z,90.36
2022-09-28T08:26:27.162Z,90.25
2022-09-28T08:27:26.492Z,90.36
2022-09-28T08:28:26.470Z,90.15
2022-09-28T08:29:26.454Z,90.36
2022-09-28T08:30:26.513Z,90.86
2022-09-28T08:31:26.436Z,90.05
2022-09-28T08:32:26.437Z,90.81
2022-09-28T08:33:26.412Z,90.50
2022-09-28T08:34:26.401Z,89.78
2022-09-28T08:35:26.434Z,90.81
2022-09-28T08:36:26.415Z,90.19
2022-09-28T08:37:26.378Z,90.30
2022-09-28T08:38:26.365Z,90.34
2022-09-28T08:39:26.341Z,90.54
2022-09-28T08:40:26.410Z,90.44
2022-09-28T08:41:26.330Z,90.75
2022-09-28T08:42:26.314Z,90.60
2022-09-28T08:43:26.308Z,90.70
2022-09-28T08:44:26.295Z,90.34
2022-09-28T08:45:26.275Z,89.51
2022-09-28T08:46:27.152Z,89.92
2022-09-28T08:47:26.252Z,90.13
2022-09-28T08:48:26.274Z,89.72
2022-09-28T08:49:26.676Z,89.92
2022-09-28T08:50:26.226Z,89.72
2022-09-28T08:51:26.223Z,90.54
2022-09-28T08:52:26.223Z,90.54
2022-09-28T08:53:26.195Z,90.54
2022-09-28T08:54:26.203Z,90.54
2022-09-28T08:55:26.171Z,90.23
2022-09-28T08:56:26.156Z,89.51
2022-09-28T08:57:26.151Z,89.72
2022-09-28T08:58:26.138Z,90.44
2022-09-28T08:59:26.123Z,90.30
2022-09-28T09:00:26.138Z,90.45
2022-09-28T09:01:26.178Z,90.45
2022-09-28T09:02:26.121Z,89.64
2022-09-28T09:03:26.077Z,89.64
2022-09-28T09:04:26.082Z,89.29
2022-09-28T09:05:26.081Z,89.09
2022-09-28T09:06:26.057Z,88.70
2022-09-28T09:07:26.031Z,88.76
2022-09-28T09:08:26.052Z,87.84
2022-09-28T09:09:26.012Z,86.71
2022-09-28T09:10:26.012Z,85.89
2022-09-28T09:11:25.991Z,84.50
2022-09-28T09:12:25.981Z,84.65
2022-09-28T09:13:25.965Z,84.79
2022-09-28T09:14:25.959Z,84.95
2022-09-28T09:15:25.943Z,85.32
2022-09-28T09:16:25.998Z,85.18
2022-09-28T09:17:25.946Z,84.01
2022-09-28T09:18:25.920Z,83.20
2022-09-28T09:19:25.897Z,82.65
2022-09-28T09:20:25.896Z,83.12
2022-09-28T09:21:25.896Z,82.61
2022-09-28T09:22:25.876Z,82.33
2022-09-28T09:23:25.857Z,82.03
2022-09-28T09:24:25.865Z,82.84
2022-09-28T09:25:25.830Z,81.41
2022-09-28T09:26:26.403Z,81.15
2022-09-28T09:27:25.837Z,81.56
2022-09-28T09:28:25.813Z,82.37
2022-09-28T09:29:25.790Z,82.64
2022-09-28T09:30:28.505Z,82.27
2022-09-28T09:31:25.950Z,81.35
2022-09-28T09:32:25.763Z,80.88
2022-09-28T09:33:25.747Z,81.09
2022-09-28T09:34:25.739Z,80.10
2022-09-28T09:35:29.554Z,81.12
2022-09-28T09:36:26.817Z,81.49
2022-09-28T09:37:25.726Z,80.78
2022-09-28T09:38:25.703Z,80.84
2022-09-28T09:39:25.700Z,79.41
2022-09-28T09:40:25.734Z,80.91
2022-09-28T09:41:25.665Z,81.27
2022-09-28T09:42:25.648Z,81.85
2022-09-28T09:43:28.075Z,81.04
2022-09-28T09:44:26.639Z,80.11
2022-09-28T09:45:25.613Z,78.28
2022-09-28T09:46:25.651Z,77.78
2022-09-28T09:47:25.592Z,79.03
2022-09-28T09:48:25.578Z,79.24
2022-09-28T09:49:25.765Z,79.95
2022-09-28T09:50:25.554Z,79.58
2022-09-28T09:51:25.540Z,79.21
2022-09-28T09:52:25.559Z,79.55
2022-09-28T09:53:25.538Z,79.35
2022-09-28T09:54:25.523Z,80.68
2022-09-28T09:55:29.939Z,81.23
2022-09-28T09:56:25.525Z,81.23
2022-09-28T09:57:25.486Z,81.49
2022-09-28T09:58:25.471Z,80.43
2022-09-28T09:59:25.469Z,80.29
2022-09-28T10:00:25.464Z,80.60
2022-09-28T10:01:25.468Z,79.00
2022-09-28T10:02:25.495Z,78.94
2022-09-28T10:03:25.412Z,79.66
2022-09-28T10:04:25.416Z,80.07
2022-09-28T10:05:25.399Z,80.07
2022-09-28T10:06:25.382Z,81.15
2022-09-28T10:07:25.375Z,80.64
2022-09-28T10:08:25.353Z,80.26
2022-09-28T10:09:25.356Z,79.85
2022-09-28T10:10:25.338Z,78.80
2022-09-28T10:11:25.321Z,78.69
2022-09-28T10:12:25.344Z,77.26
2022-09-28T10:13:25.310Z,77.94
2022-09-28T10:14:25.289Z,77.23
2022-09-28T10:15:25.299Z,76.89
2022-09-28T10:16:25.310Z,76.68
2022-09-28T10:17:25.257Z,75.16
2022-09-28T10:18:25.246Z,74.55
2022-09-28T10:19:25.230Z,74.92
2022-09-28T10:20:25.226Z,76.10
2022-09-28T10:21:25.220Z,75.12
2022-09-28T10:22:25.209Z,74.28
2022-09-28T10:23:25.185Z,76.10
2022-09-28T10:24:25.181Z,77.29
2022-09-28T10:25:25.163Z,77.22
2022-09-28T10:26:25.484Z,77.43
2022-09-28T10:27:25.143Z,75.53
2022-09-28T10:28:25.169Z,75.53
2022-09-28T10:29:25.115Z,76.38
2022-09-28T10:30:25.121Z,77.50
2022-09-28T10:31:25.119Z,77.60
2022-09-28T10:32:25.097Z,77.74
2022-09-28T10:33:25.077Z,77.67
2022-09-28T10:34:25.073Z,78.80
2022-09-28T10:35:25.059Z,79.00
2022-09-28T10:36:25.044Z,79.81
2022-09-28T10:37:25.044Z,79.44
2022-09-28T10:38:25.025Z,79.85
2022-09-28T10:39:25.016Z,79.37
2022-09-28T10:40:25.017Z,78.45
2022-09-28T10:41:24.984Z,76.75
2022-09-28T10:42:25.000Z,77.16
2022-09-28T10:43:24.965Z,76.61
2022-09-28T10:44:24.973Z,75.43
2022-09-28T10:45:24.944Z,76.25
2022-09-28T10:46:25.025Z,75.57
2022-09-28T10:47:24.953Z,75.26
2022-09-28T10:48:24.916Z,76.28
2022-09-28T10:49:24.909Z,75.46
2022-09-28T10:50:24.894Z,75.37
2022-09-28T10:51:24.881Z,75.91
2022-09-28T10:52:24.869Z,76.21
2022-09-28T10:53:24.860Z,76.92
2022-09-28T10:54:24.845Z,77.44
2022-09-28T10:55:24.831Z,77.03
2022-09-28T10:56:24.828Z,76.79
2022-09-28T10:57:24.810Z,78.25
2022-09-28T10:58:24.821Z,77.64
2022-09-28T10:59:24.786Z,76.52
2022-09-28T11:00:24.911Z,77.33
2022-09-28T11:01:24.858Z,78.45
2022-09-28T11:02:24.823Z,78.66
2022-09-28T11:03:24.773Z,78.66
2022-09-28T11:04:24.731Z,78.76
2022-09-28T11:05:24.723Z,79.53
2022-09-28T11:06:24.710Z,79.13
2022-09-28T11:07:24.698Z,78.72
2022-09-28T11:08:24.714Z,79.23
2022-09-28T11:09:28.470Z,79.53
2022-09-28T11:10:25.658Z,79.74
2022-09-28T11:11:24.656Z,78.62
2022-09-28T11:12:24.636Z,76.82
2022-09-28T11:13:24.629Z,77.06
2022-09-28T11:14:24.627Z,76.96
2022-09-28T11:15:24.627Z,77.78
2022-09-28T11:16:24.683Z,78.19
2022-09-28T11:17:24.589Z,79.20
2022-09-28T11:18:24.579Z,79.44
2022-09-28T11:19:24.575Z,79.41
2022-09-28T11:20:27.354Z,79.71
2022-09-28T11:21:24.560Z,78.83
2022-09-28T11:22:24.527Z,78.19
2022-09-28T11:23:24.535Z,79.10
2022-09-28T11:24:24.800Z,78.89
2022-09-28T11:25:24.501Z,79.03
2022-09-28T11:26:24.499Z,79.44
2022-09-28T11:27:24.478Z,79.61
2022-09-28T11:28:24.469Z,79.30
2022-09-28T11:29:24.457Z,79.81
2022-09-28T11:30:24.517Z,79.44
2022-09-28T11:31:24.462Z,79.81
2022-09-28T11:32:24.435Z,79.81
2022-09-28T11:33:24.413Z,79.14
2022-09-28T11:34:36.227Z,78.93
2022-09-28T11:35:25.387Z,78.93
2022-09-28T11:36:24.375Z,79.64
2022-09-28T11:37:24.397Z,80.16
2022-09-28T11:38:24.362Z,80.66
2022-09-28T11:39:24.354Z,80.32
2022-09-28T11:40:24.402Z,79.34
2022-09-28T11:41:24.333Z,78.53
2022-09-28T11:42:24.311Z,78.73
2022-09-28T11:43:24.333Z,79.44
2022-09-28T11:44:26.961Z,79.54
2022-09-28T11:45:24.287Z,80.05
2022-09-28T11:46:24.344Z,80.63
2022-09-28T11:47:24.253Z,80.36
2022-09-28T11:48:24.259Z,80.97
2022-09-28T11:49:24.247Z,80.16
2022-09-28T11:50:24.824Z,79.41
2022-09-28T11:51:24.247Z,79.54
2022-09-28T11:52:24.243Z,79.64
2022-09-28T11:53:24.279Z,79.75
2022-09-28T11:54:24.167Z,79.34
2022-09-28T11:55:24.164Z,79.34
2022-09-28T11:56:24.166Z,79.54
2022-09-28T11:57:24.142Z,79.95
2022-09-28T11:58:24.124Z,80.05
2022-09-28T11:59:24.138Z,79.50
2022-09-28T12:00:24.129Z,79.75
2022-09-28T12:01:24.099Z,79.24
2022-09-28T12:02:24.194Z,79.50
2022-09-28T12:03:24.242Z,79.10
2022-09-28T12:04:24.105Z,79.20
2022-09-28T12:05:24.048Z,79.88
2022-09-28T12:06:24.044Z,79.47
2022-09-28T12:07:24.029Z,79.47
2022-09-28T12:08:24.012Z,79.43
2022-09-28T12:09:24.041Z,78.92
2022-09-28T12:10:24.008Z,78.31
2022-09-28T12:11:24.050Z,79.63
2022-09-28T12:12:23.968Z,78.41
2022-09-28T12:13:23.966Z,77.91
2022-09-28T12:14:23.963Z,78.41
2022-09-28T12:15:23.944Z,78.96
2022-09-28T12:16:53.154Z,77.03
2022-09-28T12:17:25.017Z,77.60
2022-09-28T12:18:23.909Z,77.20
2022-09-28T12:19:23.899Z,77.40
2022-09-28T12:20:23.901Z,76.89
2022-09-28T12:21:23.874Z,75.67
2022-09-28T12:22:23.875Z,76.18
2022-09-28T12:23:23.866Z,76.89
2022-09-28T12:24:23.844Z,76.18
2022-09-28T12:25:23.835Z,75.67
2022-09-28T12:26:23.816Z,76.68
2022-09-28T12:27:23.840Z,76.45
2022-09-28T12:28:23.793Z,77.12
2022-09-28T12:29:23.798Z,76.98
2022-09-28T12:30:23.777Z,75.16
2022-09-28T12:31:23.859Z,75.16
2022-09-28T12:32:23.757Z,75.36
2022-09-28T12:33:23.755Z,75.12
2022-09-28T12:34:23.720Z,73.93
2022-09-28T12:35:23.719Z,73.73
2022-09-28T12:36:23.723Z,72.72
2022-09-28T12:37:23.693Z,72.48
2022-09-28T12:38:23.691Z,71.88
2022-09-28T12:39:35.710Z,71.06
2022-09-28T12:40:24.704Z,70.15
2022-09-28T12:41:23.651Z,70.96
2022-09-28T12:42:23.656Z,71.16
2022-09-28T12:43:23.650Z,70.76
2022-09-28T12:44:23.628Z,71.09
2022-09-28T12:45:23.604Z,71.67
2022-09-28T12:46:23.643Z,72.48
2022-09-28T12:47:23.588Z,72.28
2022-09-28T12:48:23.571Z,70.86
2022-09-28T12:50:13.747Z,71.67
2022-09-28T12:50:44.024Z,72.11
2022-09-28T12:51:24.543Z,71.37
2022-09-28T12:52:23.550Z,71.20